createdAt,value
2023-05-01T00:01:53.414Z,2.00
2023-05-01T00:04:21.937Z,1.33
2023-05-01T00:06:48.575Z,2.00
2023-05-01T00:09:15.114Z,1.00
2023-05-01T00:11:41.786Z,1.00
2023-05-01T00:14:08.986Z,2.00
2023-05-01T00:16:35.967Z,2.00
2023-05-01T00:19:04.053Z,1.00
2023-05-01T00:21:32.241Z,2.00
2023-05-01T00:23:59.011Z,2.00
2023-05-01T00:26:29.808Z,2.00
2023-05-01T00:28:57.684Z,2.00
2023-05-01T00:31:25.029Z,1.75
2023-05-01T00:33:52.611Z,2.00
2023-05-01T00:36:20.155Z,1.00
2023-05-01T00:38:46.797Z,2.00
2023-05-01T00:41:13.666Z,2.00
2023-05-01T00:43:40.296Z,2.00
2023-05-01T00:46:07.298Z,2.00
2023-05-01T00:48:33.957Z,1.00
2023-05-01T00:51:00.761Z,1.50
2023-05-01T00:53:27.688Z,2.00
2023-05-01T00:55:55.793Z,2.00
2023-05-01T00:58:22.527Z,1.00
2023-05-01T01:00:49.549Z,3.00
2023-05-01T01:03:16.331Z,2.00
2023-05-01T01:05:46.215Z,1.33
2023-05-01T01:08:32.662Z,1.00
2023-05-01T01:10:59.461Z,2.00
2023-05-01T01:13:36.517Z,2.00
2023-05-01T01:16:13.585Z,2.00
2023-05-01T01:18:43.520Z,3.00
2023-05-01T01:21:42.561Z,3.00
2023-05-01T01:24:21.468Z,2.00
2023-05-01T01:27:19.467Z,2.00
2023-05-01T01:30:09.364Z,1.00
2023-05-01T01:32:51.255Z,1.50
2023-05-01T01:35:19.431Z,2.00
2023-05-01T01:37:49.556Z,0.00
2023-05-01T01:40:16.806Z,1.50
2023-05-01T01:42:45.963Z,2.00
2023-05-01T01:45:20.229Z,1.50
2023-05-01T01:47:47.149Z,1.00
2023-05-01T01:50:14.559Z,2.00
2023-05-01T01:52:41.582Z,2.00
2023-05-01T01:55:10.570Z,1.00
2023-05-01T01:57:38.880Z,1.00
2023-05-01T02:00:08.421Z,1.00
2023-05-01T02:02:40.345Z,1.00
2023-05-01T02:05:07.087Z,2.00
2023-05-01T02:07:35.383Z,1.00
2023-05-01T02:10:02.021Z,1.67
2023-05-01T02:12:28.539Z,2.00
2023-05-01T02:14:55.231Z,1.00
2023-05-01T02:17:22.123Z,1.00
2023-05-01T02:19:48.925Z,2.00
2023-05-01T02:22:16.617Z,2.00
2023-05-01T02:24:43.418Z,1.00
2023-05-01T02:27:13.145Z,2.00
2023-05-01T02:29:39.993Z,0.75
2023-05-01T02:32:06.984Z,1.00
2023-05-01T02:34:34.975Z,1.00
2023-05-01T02:37:04.000Z,1.75
2023-05-01T02:39:30.769Z,1.00
2023-05-01T02:41:57.874Z,2.00
2023-05-01T02:44:25.101Z,1.00
2023-05-01T02:46:52.277Z,1.00
2023-05-01T02:49:19.347Z,1.00
2023-05-01T02:51:46.446Z,0.00
2023-05-01T02:54:13.380Z,1.00
2023-05-01T02:56:40.122Z,1.00
2023-05-01T02:59:07.076Z,1.00
2023-05-01T03:01:34.258Z,0.25
2023-05-01T03:04:01.459Z,0.25
2023-05-01T03:06:28.571Z,1.00
2023-05-01T03:08:55.382Z,1.00
2023-05-01T03:11:22.527Z,1.00
2023-05-01T03:13:49.719Z,0.67
2023-05-01T03:16:16.513Z,1.00
2023-05-01T03:18:43.286Z,1.00
2023-05-01T03:21:11.993Z,1.00
2023-05-01T03:23:38.918Z,1.00
2023-05-01T03:26:07.161Z,1.00
2023-05-01T03:28:33.921Z,0.67
2023-05-01T03:31:00.866Z,1.00
2023-05-01T03:33:27.704Z,0.00
2023-05-01T03:36:03.897Z,1.00
2023-05-01T03:38:31.370Z,1.00
2023-05-01T03:41:10.139Z,0.67
2023-05-01T03:43:55.062Z,1.00
2023-05-01T03:46:30.081Z,1.00
2023-05-01T03:48:57.302Z,1.00
2023-05-01T03:51:25.210Z,0.67
2023-05-01T03:53:56.217Z,0.00
2023-05-01T03:56:25.153Z,1.00
2023-05-01T03:58:52.645Z,0.67
2023-05-01T04:01:19.535Z,1.00
2023-05-01T04:03:47.676Z,1.00
2023-05-01T04:06:16.542Z,1.50
2023-05-01T04:08:43.239Z,0.00
2023-05-01T04:11:10.450Z,1.00
2023-05-01T04:13:37.109Z,0.75
2023-05-01T04:16:04.396Z,1.25
2023-05-01T04:18:31.101Z,0.00
2023-05-01T04:20:59.039Z,0.33
2023-05-01T04:23:25.674Z,1.00
2023-05-01T04:25:53.284Z,1.00
2023-05-01T04:28:20.121Z,1.00
2023-05-01T04:30:47.192Z,0.67
2023-05-01T04:33:13.902Z,1.00
2023-05-01T04:35:41.036Z,0.33
2023-05-01T04:38:08.403Z,0.67
2023-05-01T04:40:36.110Z,1.00
2023-05-01T04:43:03.152Z,0.50
2023-05-01T04:45:29.694Z,1.00
2023-05-01T04:47:56.436Z,1.00
2023-05-01T04:50:23.109Z,1.00
2023-05-01T04:52:49.838Z,1.00
2023-05-01T04:55:17.561Z,1.00
2023-05-01T04:58:05.815Z,1.00
2023-05-01T05:00:33.252Z,1.00
2023-05-01T05:03:00.759Z,1.00
2023-05-01T05:05:27.561Z,1.67
2023-05-01T05:07:54.172Z,1.00
2023-05-01T05:10:27.567Z,1.00
2023-05-01T05:13:07.215Z,0.00
2023-05-01T05:15:33.774Z,0.00
2023-05-01T05:18:00.669Z,1.00
2023-05-01T05:20:27.939Z,2.00
2023-05-01T05:22:54.749Z,1.00
2023-05-01T05:25:23.782Z,1.00
2023-05-01T05:27:50.377Z,1.00
2023-05-01T05:30:17.170Z,0.67
2023-05-01T05:32:45.993Z,0.00
2023-05-01T05:35:13.638Z,1.00
2023-05-01T05:37:40.243Z,1.00
2023-05-01T05:40:07.748Z,1.00
2023-05-01T05:42:40.519Z,0.00
2023-05-01T05:45:09.001Z,1.00
2023-05-01T05:47:36.002Z,1.00
2023-05-01T05:50:03.577Z,1.00
2023-05-01T05:52:30.405Z,1.00
2023-05-01T05:54:57.316Z,0.00
2023-05-01T05:57:24.294Z,0.00
2023-05-01T05:59:51.272Z,1.00
2023-05-01T06:02:20.099Z,0.33
2023-05-01T06:04:46.768Z,1.00
2023-05-01T06:07:13.987Z,0.00
2023-05-01T06:09:40.873Z,0.00
2023-05-01T06:12:07.761Z,0.00
2023-05-01T06:14:34.472Z,1.00
2023-05-01T06:17:01.263Z,0.00
2023-05-01T06:19:28.047Z,0.67
2023-05-01T06:22:02.400Z,0.00
2023-05-01T06:24:30.329Z,0.00
2023-05-01T06:27:01.370Z,1.00
2023-05-01T06:29:28.608Z,1.00
2023-05-01T06:31:55.316Z,1.00
2023-05-01T06:34:22.035Z,1.00
2023-05-01T06:36:52.587Z,0.00
2023-05-01T06:39:19.520Z,0.00
2023-05-01T06:41:47.067Z,1.00
2023-05-01T06:44:15.038Z,1.00
2023-05-01T06:46:41.718Z,1.00
2023-05-01T06:49:08.657Z,1.00
2023-05-01T06:51:35.442Z,2.00
2023-05-01T06:54:02.272Z,0.00
2023-05-01T06:56:29.106Z,0.33
2023-05-01T06:58:55.648Z,1.00
2023-05-01T07:01:22.748Z,1.00
2023-05-01T07:03:49.980Z,0.00
2023-05-01T07:06:16.696Z,1.00
2023-05-01T07:08:43.315Z,1.33
2023-05-01T07:11:10.154Z,1.00
2023-05-01T07:13:37.014Z,0.00
2023-05-01T07:16:05.140Z,0.67
2023-05-01T07:18:31.729Z,2.00
2023-05-01T07:20:58.530Z,1.00
2023-05-01T07:23:25.268Z,1.00
2023-05-01T07:25:52.010Z,0.67
2023-05-01T07:28:20.066Z,1.00
2023-05-01T07:30:47.746Z,1.00
2023-05-01T07:33:14.311Z,0.00
2023-05-01T07:35:40.840Z,0.00
2023-05-01T07:38:08.174Z,1.00
2023-05-01T07:40:34.935Z,1.00
2023-05-01T07:43:01.724Z,1.00
2023-05-01T07:45:28.459Z,1.00
2023-05-01T07:47:56.376Z,1.00
2023-05-01T07:50:24.420Z,0.00
2023-05-01T07:52:51.124Z,1.33
2023-05-01T07:55:18.574Z,1.00
2023-05-01T07:57:45.678Z,1.00
2023-05-01T08:00:13.276Z,1.00
2023-05-01T08:02:40.558Z,0.00
2023-05-01T08:05:07.580Z,1.00
2023-05-01T08:07:34.158Z,2.00
2023-05-01T08:10:01.068Z,0.00
2023-05-01T08:12:28.321Z,0.33
2023-05-01T08:14:55.001Z,1.00
2023-05-01T08:17:21.679Z,1.00
2023-05-01T08:19:49.664Z,1.00
2023-05-01T08:22:16.374Z,1.00
2023-05-01T08:24:43.363Z,0.00
2023-05-01T08:27:10.321Z,1.00
2023-05-01T08:29:36.944Z,1.00
2023-05-01T08:32:03.588Z,0.67
2023-05-01T08:34:30.440Z,1.00
2023-05-01T08:36:58.530Z,0.67
2023-05-01T08:39:25.468Z,0.00
2023-05-01T08:41:52.203Z,0.00
2023-05-01T08:44:21.975Z,1.00
2023-05-01T08:46:53.161Z,0.33
2023-05-01T08:49:20.638Z,0.00
2023-05-01T08:51:47.555Z,1.00
2023-05-01T08:54:15.193Z,1.00
2023-05-01T08:56:43.106Z,1.00
2023-05-01T08:59:10.583Z,1.00
2023-05-01T09:01:37.137Z,1.00
2023-05-01T09:04:04.578Z,1.00
2023-05-01T09:06:31.818Z,2.00
2023-05-01T09:08:59.097Z,1.00
2023-05-01T09:11:25.673Z,1.00
2023-05-01T09:13:52.551Z,2.00
2023-05-01T09:16:19.803Z,1.00
2023-05-01T09:18:46.641Z,0.00
2023-05-01T09:21:13.156Z,1.00
2023-05-01T09:23:40.432Z,1.00
2023-05-01T09:26:11.282Z,1.00
2023-05-01T09:28:44.795Z,1.00
2023-05-01T09:31:25.874Z,1.00
2023-05-01T09:34:00.120Z,0.67
2023-05-01T09:36:28.073Z,1.00
2023-05-01T09:38:55.015Z,1.00
2023-05-01T09:41:21.916Z,1.00
2023-05-01T09:43:52.537Z,1.00
2023-05-01T09:46:19.829Z,1.00
2023-05-01T09:49:02.852Z,1.00
2023-05-01T09:51:33.417Z,1.00
2023-05-01T09:54:02.423Z,1.00
2023-05-01T09:56:33.266Z,2.00
2023-05-01T09:59:14.650Z,1.00
2023-05-01T10:01:42.527Z,1.00
2023-05-01T10:04:09.434Z,1.00
2023-05-01T10:06:36.315Z,0.33
2023-05-01T10:09:03.539Z,0.00
2023-05-01T10:11:30.616Z,1.50
2023-05-01T10:14:08.153Z,0.00
2023-05-01T10:16:36.011Z,1.00
2023-05-01T10:19:04.453Z,1.00
2023-05-01T10:21:32.699Z,1.00
2023-05-01T10:24:00.508Z,1.00
2023-05-01T10:26:27.482Z,1.00
2023-05-01T10:28:54.294Z,1.50
2023-05-01T10:31:21.034Z,0.50
2023-05-01T10:33:47.980Z,1.00
2023-05-01T10:36:26.064Z,1.00
2023-05-01T10:38:52.782Z,1.00
2023-05-01T10:41:54.443Z,2.00
2023-05-01T10:44:27.441Z,1.00
2023-05-01T10:46:54.489Z,1.00
2023-05-01T10:49:21.652Z,1.00
2023-05-01T10:52:03.445Z,1.00
2023-05-01T10:54:31.022Z,1.00
2023-05-01T10:57:01.277Z,1.00
2023-05-01T11:00:01.220Z,0.00
2023-05-01T11:02:27.886Z,1.00
2023-05-01T11:04:56.379Z,1.00
2023-05-01T11:07:23.495Z,0.33
2023-05-01T11:09:54.424Z,1.00
2023-05-01T11:12:45.902Z,1.00
2023-05-01T11:15:13.161Z,1.00
2023-05-01T11:17:42.955Z,1.00
2023-05-01T11:20:11.071Z,1.00
2023-05-01T11:22:42.505Z,1.00
2023-05-01T11:25:24.957Z,1.00
2023-05-01T11:27:56.714Z,2.33
2023-05-01T11:30:23.512Z,1.00
2023-05-01T11:32:50.362Z,2.00
2023-05-01T11:35:23.539Z,2.00
2023-05-01T11:37:55.981Z,2.00
2023-05-01T11:40:24.685Z,2.00
2023-05-01T11:42:59.820Z,2.00
2023-05-01T11:45:26.741Z,2.33
2023-05-01T11:47:53.356Z,3.00
2023-05-01T11:50:21.641Z,1.00
2023-05-01T11:52:49.759Z,2.33
2023-05-01T11:55:16.628Z,2.00
2023-05-01T11:57:52.673Z,2.00
2023-05-01T12:00:30.477Z,2.00
2023-05-01T12:03:03.793Z,4.00
2023-05-01T12:05:31.106Z,2.00
2023-05-01T12:08:21.299Z,2.67
2023-05-01T12:10:57.226Z,3.00
2023-05-01T12:13:24.519Z,2.00
2023-05-01T12:15:52.325Z,3.00
2023-05-01T12:18:20.754Z,3.00
2023-05-01T12:20:49.658Z,3.00
2023-05-01T12:23:17.157Z,3.00
2023-05-01T12:25:44.274Z,2.00
2023-05-01T12:28:13.544Z,2.00
2023-05-01T12:30:40.922Z,2.00
2023-05-01T12:33:12.481Z,2.33
2023-05-01T12:35:40.335Z,1.33
2023-05-01T12:38:12.149Z,2.00
2023-05-01T12:40:40.047Z,2.00
2023-05-01T12:43:06.657Z,2.00
2023-05-01T12:45:39.800Z,2.67
2023-05-01T12:48:13.253Z,3.00
2023-05-01T12:50:41.093Z,2.00
2023-05-01T12:53:09.090Z,1.00
2023-05-01T12:55:50.801Z,2.33
2023-05-01T12:58:18.113Z,2.00
2023-05-01T13:00:49.597Z,2.00
2023-05-01T13:03:23.956Z,2.67
2023-05-01T13:05:57.581Z,2.00
2023-05-01T13:08:26.674Z,2.00
2023-05-01T13:10:56.940Z,1.00
2023-05-01T13:13:31.407Z,1.00
2023-05-01T13:16:09.505Z,1.00
2023-05-01T13:18:47.077Z,3.75
2023-05-01T13:21:18.971Z,3.00
2023-05-01T13:23:59.224Z,3.00
2023-05-01T13:26:30.480Z,2.00
2023-05-01T13:28:57.927Z,2.00
2023-05-01T13:31:25.079Z,3.00
2023-05-01T13:33:52.924Z,2.00
2023-05-01T13:36:26.769Z,1.50
2023-05-01T13:38:55.409Z,2.00
2023-05-01T13:41:23.825Z,2.00
2023-05-01T13:43:51.750Z,2.00
2023-05-01T13:46:20.742Z,3.25
2023-05-01T13:48:47.522Z,3.00
2023-05-01T13:51:15.205Z,2.00
2023-05-01T13:53:42.007Z,2.00
2023-05-01T13:56:09.354Z,2.00
2023-05-01T13:58:35.924Z,3.00
2023-05-01T14:01:05.968Z,2.25
2023-05-01T14:03:39.684Z,2.00
2023-05-01T14:06:10.577Z,2.00
2023-05-01T14:08:37.588Z,2.00
2023-05-01T14:11:05.543Z,2.00
2023-05-01T14:13:32.779Z,2.00
2023-05-01T14:15:59.552Z,2.00
2023-05-01T14:18:26.180Z,3.00
2023-05-01T14:20:52.793Z,2.33
2023-05-01T14:23:20.260Z,1.33
2023-05-01T14:25:48.095Z,1.50
2023-05-01T14:28:14.996Z,1.75
2023-05-01T14:30:41.835Z,1.00
2023-05-01T14:33:12.044Z,1.25
2023-05-01T14:35:49.371Z,1.00
2023-05-01T14:38:17.199Z,2.00
2023-05-01T14:40:44.174Z,2.00
2023-05-01T14:43:16.103Z,2.00
2023-05-01T14:45:44.705Z,2.00
2023-05-01T14:48:25.733Z,2.00
2023-05-01T14:50:54.091Z,2.50
2023-05-01T14:53:20.589Z,2.00
2023-05-01T14:55:51.554Z,2.75
2023-05-01T14:58:18.263Z,1.75
2023-05-01T15:00:45.493Z,2.00
2023-05-01T15:03:12.678Z,2.00
2023-05-01T15:05:41.063Z,2.00
2023-05-01T15:08:08.397Z,1.75
2023-05-01T15:10:35.501Z,1.25
2023-05-01T15:13:02.334Z,1.50
2023-05-01T15:15:29.248Z,2.00
2023-05-01T15:17:55.994Z,2.00
2023-05-01T15:20:22.800Z,2.00
2023-05-01T15:22:49.328Z,1.00
2023-05-01T15:25:16.162Z,1.00
2023-05-01T15:27:43.923Z,2.00
2023-05-01T15:30:12.306Z,1.00
2023-05-01T15:32:39.306Z,2.00
2023-05-01T15:35:06.610Z,2.00
2023-05-01T15:37:33.139Z,2.00
2023-05-01T15:39:59.891Z,2.00
2023-05-01T15:42:26.540Z,2.00
2023-05-01T15:44:53.090Z,3.00
2023-05-01T15:47:19.952Z,1.00
2023-05-01T15:49:46.596Z,2.00
2023-05-01T15:52:13.200Z,1.00
2023-05-01T15:54:40.155Z,2.00
2023-05-01T15:57:07.957Z,2.00
2023-05-01T15:59:34.799Z,2.00
2023-05-01T16:02:01.849Z,1.50
2023-05-01T16:04:28.502Z,2.00
2023-05-01T16:06:55.658Z,2.00
2023-05-01T16:09:23.388Z,1.00
2023-05-01T16:11:50.148Z,2.00
2023-05-01T16:14:16.679Z,1.00
2023-05-01T16:16:43.572Z,2.00
2023-05-01T16:19:11.381Z,2.00
2023-05-01T16:21:38.080Z,1.00
2023-05-01T16:24:05.863Z,1.00
2023-05-01T16:26:32.487Z,1.00
2023-05-01T16:29:00.583Z,1.50
2023-05-01T16:31:28.022Z,1.75
2023-05-01T16:33:56.016Z,2.00
2023-05-01T16:36:22.610Z,2.00
2023-05-01T16:38:49.120Z,1.00
2023-05-01T16:41:16.553Z,2.00
2023-05-01T16:43:44.316Z,3.00
2023-05-01T16:46:12.212Z,1.67
2023-05-01T16:48:38.937Z,1.00
2023-05-01T16:51:06.195Z,1.00
2023-05-01T16:53:33.173Z,2.00
2023-05-01T16:55:59.993Z,2.00
2023-05-01T16:58:27.056Z,2.00
2023-05-01T17:00:54.851Z,2.00
2023-05-01T17:03:21.473Z,2.00
2023-05-01T17:05:48.109Z,2.00
2023-05-01T17:08:14.626Z,2.00
2023-05-01T17:10:41.295Z,3.00
2023-05-01T17:13:08.036Z,2.00
2023-05-01T17:15:34.659Z,1.67
2023-05-01T17:18:01.396Z,1.00
2023-05-01T17:20:28.057Z,2.00
2023-05-01T17:22:54.934Z,2.00
2023-05-01T17:25:21.820Z,1.00
2023-05-01T17:27:48.515Z,1.00
2023-05-01T17:30:18.068Z,2.00
2023-05-01T17:32:44.828Z,1.00
2023-05-01T17:35:11.745Z,2.00
2023-05-01T17:37:39.261Z,1.00
2023-05-01T17:40:08.250Z,2.00
2023-05-01T17:42:35.764Z,2.00
2023-05-01T17:45:04.240Z,2.00
2023-05-01T17:47:31.071Z,1.00
2023-05-01T17:49:59.782Z,1.00
2023-05-01T17:52:26.743Z,1.00
2023-05-01T17:54:53.509Z,2.00
2023-05-01T17:57:20.137Z,2.00
2023-05-01T17:59:46.762Z,2.00
2023-05-01T18:02:13.776Z,2.00
2023-05-01T18:04:40.519Z,2.00
2023-05-01T18:07:07.178Z,1.67
2023-05-01T18:09:34.014Z,0.00
2023-05-01T18:12:01.686Z,1.00
2023-05-01T18:14:28.936Z,2.00
2023-05-01T18:16:56.244Z,1.00
2023-05-01T18:19:22.899Z,2.00
2023-05-01T18:21:49.699Z,1.00
2023-05-01T18:24:16.284Z,2.00
2023-05-01T18:26:42.838Z,1.67
2023-05-01T18:29:09.438Z,1.00
2023-05-01T18:31:37.530Z,1.33
2023-05-01T18:34:04.246Z,1.00
2023-05-01T18:36:31.448Z,2.00
2023-05-01T18:38:58.114Z,2.00
2023-05-01T18:41:27.502Z,2.00
2023-05-01T18:43:57.698Z,2.00
2023-05-01T18:46:25.031Z,2.00
2023-05-01T18:48:51.901Z,2.00
2023-05-01T18:51:18.498Z,2.00
2023-05-01T18:53:45.176Z,2.00
2023-05-01T18:56:11.824Z,2.00
2023-05-01T18:58:39.361Z,2.00
2023-05-01T19:01:06.252Z,2.00
2023-05-01T19:03:32.802Z,4.00
2023-05-01T19:05:59.480Z,2.00
2023-05-01T19:08:26.346Z,2.00
2023-05-01T19:10:53.005Z,2.00
2023-05-01T19:13:19.572Z,0.00
2023-05-01T19:15:46.397Z,2.33
2023-05-01T19:18:13.007Z,2.00
2023-05-01T19:20:40.238Z,2.00
2023-05-01T19:23:07.015Z,1.00
2023-05-01T19:25:33.769Z,2.00
2023-05-01T19:28:01.449Z,2.00
2023-05-01T19:30:28.375Z,2.00
2023-05-01T19:32:55.210Z,1.67
2023-05-01T19:35:22.089Z,1.67
2023-05-01T19:37:54.658Z,3.00
2023-05-01T19:40:21.235Z,3.00
2023-05-01T19:42:47.920Z,2.33
2023-05-01T19:45:16.323Z,3.00
2023-05-01T19:47:45.268Z,2.00
2023-05-01T19:50:11.895Z,2.00
2023-05-01T19:52:38.886Z,2.67
2023-05-01T19:55:06.074Z,4.00
2023-05-01T19:57:33.415Z,2.67
2023-05-01T20:00:00.283Z,2.00
2023-05-01T20:02:28.035Z,2.33
2023-05-01T20:04:55.071Z,2.00
2023-05-01T20:07:21.679Z,2.00
2023-05-01T20:09:48.418Z,1.33
2023-05-01T20:12:15.063Z,2.67
2023-05-01T20:14:41.678Z,2.00
2023-05-01T20:17:08.730Z,2.33
2023-05-01T20:19:39.426Z,3.00
2023-05-01T20:22:06.453Z,2.67
2023-05-01T20:24:33.156Z,2.00
2023-05-01T20:26:59.931Z,1.67
2023-05-01T20:29:27.679Z,3.00
2023-05-01T20:31:54.648Z,3.00
2023-05-01T20:34:22.915Z,3.00
2023-05-01T20:36:49.558Z,3.00
2023-05-01T20:39:16.228Z,3.00
2023-05-01T20:41:43.201Z,3.00
2023-05-01T20:44:10.811Z,1.00
2023-05-01T20:46:37.377Z,3.00
2023-05-01T20:49:08.081Z,3.00
2023-05-01T20:51:34.615Z,3.00
2023-05-01T20:54:01.327Z,4.00
2023-05-01T20:56:28.175Z,3.00
2023-05-01T20:58:54.905Z,2.00
2023-05-01T21:01:21.591Z,2.00
2023-05-01T21:03:48.727Z,3.00
2023-05-01T21:06:15.560Z,2.67
2023-05-01T21:08:42.225Z,2.33
2023-05-01T21:11:08.789Z,2.67
2023-05-01T21:13:35.443Z,4.00
2023-05-01T21:16:02.262Z,2.00
2023-05-01T21:18:30.570Z,2.00
2023-05-01T21:20:57.604Z,3.67
2023-05-01T21:23:24.169Z,3.00
2023-05-01T21:25:53.145Z,2.33
2023-05-01T21:28:19.881Z,3.00
2023-05-01T21:30:46.425Z,2.00
2023-05-01T21:33:13.727Z,3.00
2023-05-01T21:35:41.824Z,3.00
2023-05-01T21:38:08.632Z,2.00
2023-05-01T21:40:45.825Z,3.00
2023-05-01T21:43:12.803Z,4.00
2023-05-01T21:45:42.687Z,3.00
2023-05-01T21:48:09.688Z,3.67
2023-05-01T21:50:37.519Z,3.00
2023-05-01T21:53:05.657Z,3.00
2023-05-01T21:55:32.855Z,2.67
2023-05-01T21:57:59.964Z,3.67
2023-05-01T22:00:27.429Z,2.67
2023-05-01T22:02:55.868Z,4.00
2023-05-01T22:05:23.024Z,4.00
2023-05-01T22:07:51.499Z,3.00
2023-05-01T22:10:18.185Z,4.00
2023-05-01T22:12:45.058Z,1.67
2023-05-01T22:15:12.417Z,4.00
2023-05-01T22:17:39.716Z,3.00
2023-05-01T22:20:07.481Z,3.00
2023-05-01T22:22:34.431Z,3.00
2023-05-01T22:25:01.338Z,1.67
2023-05-01T22:27:28.080Z,2.33
2023-05-01T22:29:55.014Z,2.00
2023-05-01T22:32:22.034Z,3.67
2023-05-01T22:34:48.972Z,3.00
2023-05-01T22:37:18.222Z,2.00
2023-05-01T22:39:44.743Z,3.00
2023-05-01T22:42:11.300Z,4.00
2023-05-01T22:44:37.970Z,5.00
2023-05-01T22:47:04.971Z,3.67
2023-05-01T22:49:32.159Z,4.00
2023-05-01T22:51:59.243Z,3.00
2023-05-01T22:54:26.966Z,4.00
2023-05-01T22:56:54.182Z,4.00
2023-05-01T22:59:21.049Z,4.00
2023-05-01T23:01:47.711Z,4.00
2023-05-01T23:04:14.911Z,3.00
2023-05-01T23:06:42.621Z,2.00
2023-05-01T23:09:09.274Z,2.00
2023-05-01T23:11:36.032Z,3.00
2023-05-01T23:14:02.596Z,3.00
2023-05-01T23:16:31.570Z,4.00
2023-05-01T23:18:58.263Z,3.00
2023-05-01T23:21:24.857Z,3.67
2023-05-01T23:23:51.436Z,3.00
2023-05-01T23:26:28.190Z,3.67
2023-05-01T23:28:54.843Z,3.00
2023-05-01T23:31:28.677Z,3.50
2023-05-01T23:33:55.754Z,4.00
2023-05-01T23:36:22.673Z,3.00
2023-05-01T23:38:49.204Z,2.67
2023-05-01T23:41:15.958Z,4.00
2023-05-01T23:43:43.844Z,3.00
2023-05-01T23:46:11.089Z,3.67
2023-05-01T23:48:38.186Z,3.67
2023-05-01T23:51:05.054Z,4.00
2023-05-01T23:53:31.891Z,3.00
2023-05-01T23:55:58.571Z,2.50
2023-05-01T23:58:25.198Z,4.67
